createdAt,value
2018-06-16T00:00:31.984Z,20.13
2018-06-16T00:01:12.549Z,20.14
2018-06-16T00:01:53.117Z,20.13
2018-06-16T00:02:33.690Z,20.07
2018-06-16T00:03:14.264Z,20.07
2018-06-16T00:03:54.833Z,20.03
2018-06-16T00:04:35.389Z,20.07
2018-06-16T00:05:15.964Z,20.04
2018-06-16T00:05:56.542Z,20.03
2018-06-16T00:06:37.139Z,20.06
2018-06-16T00:07:17.685Z,20.04
2018-06-16T00:07:58.263Z,20.03
2018-06-16T00:08:38.852Z,20.09
2018-06-16T00:09:19.420Z,20.02
2018-06-16T00:09:59.984Z,20.07
2018-06-16T00:10:40.582Z,20.06
2018-06-16T00:11:21.120Z,20
2018-06-16T00:12:01.816Z,20.04
2018-06-16T00:12:42.382Z,19.89
2018-06-16T00:13:22.945Z,19.92
2018-06-16T00:14:03.512Z,19.89
2018-06-16T00:14:44.075Z,20.1
2018-06-16T00:15:24.642Z,19.95
2018-06-16T00:16:05.212Z,20.02
2018-06-16T00:16:45.767Z,20.13
2018-06-16T00:17:26.329Z,20.04
2018-06-16T00:18:06.897Z,20.03
2018-06-16T00:18:47.469Z,19.96
2018-06-16T00:19:28.038Z,19.96
2018-06-16T00:20:08.606Z,19.94
2018-06-16T00:20:49.172Z,20.02
2018-06-16T00:21:29.745Z,19.94
2018-06-16T00:22:10.317Z,20
2018-06-16T00:22:50.889Z,20
2018-06-16T00:23:31.454Z,20.04
2018-06-16T00:24:12.021Z,20.04
2018-06-16T00:24:52.589Z,20.02
2018-06-16T00:25:33.159Z,20.04
2018-06-16T00:26:13.716Z,20.04
2018-06-16T00:26:54.285Z,20
2018-06-16T00:27:34.842Z,20.02
2018-06-16T00:28:15.402Z,20.03
2018-06-16T00:28:55.967Z,20.07
2018-06-16T00:29:36.524Z,20.06
2018-06-16T00:30:17.083Z,20
2018-06-16T00:30:57.658Z,20.02
2018-06-16T00:31:38.221Z,20
2018-06-16T00:32:18.966Z,20.04
2018-06-16T00:32:59.533Z,20
2018-06-16T00:33:40.097Z,20.11
2018-06-16T00:34:20.666Z,20.14
2018-06-16T00:35:01.235Z,20.04
2018-06-16T00:35:41.790Z,20.03
2018-06-16T00:36:22.369Z,20.04
2018-06-16T00:37:02.941Z,20.07
2018-06-16T00:37:43.501Z,20.03
2018-06-16T00:38:24.077Z,20.02
2018-06-16T00:39:04.635Z,20.09
2018-06-16T00:39:45.195Z,20.04
2018-06-16T00:40:25.792Z,20.06
2018-06-16T00:41:06.361Z,20.07
2018-06-16T00:41:46.921Z,20
2018-06-16T00:42:27.492Z,20.04
2018-06-16T00:43:08.057Z,19.96
2018-06-16T00:43:48.620Z,19.89
2018-06-16T00:44:29.208Z,19.89
2018-06-16T00:45:09.780Z,19.86
2018-06-16T00:45:50.333Z,19.94
2018-06-16T00:46:30.896Z,20.06
2018-06-16T00:47:11.445Z,20.02
2018-06-16T00:47:51.995Z,20.03
2018-06-16T00:48:32.549Z,19.92
2018-06-16T00:49:13.128Z,20.03
2018-06-16T00:49:53.700Z,19.94
2018-06-16T00:50:34.269Z,19.91
2018-06-16T00:51:14.870Z,19.91
2018-06-16T00:51:55.465Z,19.95
2018-06-16T00:52:36.017Z,19.95
2018-06-16T00:53:16.589Z,19.96
2018-06-16T00:53:57.136Z,19.96
2018-06-16T00:54:37.695Z,19.86
2018-06-16T00:55:18.248Z,19.92
2018-06-16T00:55:58.812Z,19.92
2018-06-16T00:56:39.357Z,19.96
2018-06-16T00:57:19.911Z,19.92
2018-06-16T00:58:00.484Z,19.89
2018-06-16T00:58:41.040Z,19.86
2018-06-16T00:59:21.607Z,19.85
2018-06-16T01:00:02.179Z,19.96
2018-06-16T01:00:42.743Z,19.92
2018-06-16T01:01:23.305Z,19.88
2018-06-16T01:02:03.873Z,20
2018-06-16T01:02:44.418Z,20
2018-06-16T01:03:24.983Z,19.91
2018-06-16T01:04:05.530Z,19.95
2018-06-16T01:04:46.072Z,19.94
2018-06-16T01:05:26.649Z,19.89
2018-06-16T01:06:07.225Z,19.92
2018-06-16T01:06:47.802Z,19.92
2018-06-16T01:07:28.379Z,19.94
2018-06-16T01:08:08.972Z,19.88
2018-06-16T01:08:49.545Z,19.92
2018-06-16T01:09:30.114Z,19.89
2018-06-16T01:10:10.685Z,19.89
2018-06-16T01:10:51.226Z,19.92
2018-06-16T01:11:31.792Z,19.91
2018-06-16T01:12:12.368Z,19.88
2018-06-16T01:12:52.936Z,19.88
2018-06-16T01:13:33.493Z,19.89
2018-06-16T01:14:14.059Z,19.94
2018-06-16T01:14:54.632Z,19.92
2018-06-16T01:15:35.194Z,19.92
2018-06-16T01:16:15.811Z,19.86
2018-06-16T01:16:56.295Z,19.82
2018-06-16T01:17:36.843Z,19.86
2018-06-16T01:18:17.405Z,19.88
2018-06-16T01:18:57.964Z,19.92
2018-06-16T01:19:38.541Z,19.88
2018-06-16T01:20:19.092Z,19.79
2018-06-16T01:20:59.665Z,19.77
2018-06-16T01:21:40.229Z,19.82
2018-06-16T01:22:20.796Z,19.92
2018-06-16T01:23:01.344Z,19.79
2018-06-16T01:23:41.903Z,19.79
2018-06-16T01:24:22.481Z,19.81
2018-06-16T01:25:03.049Z,19.84
2018-06-16T01:25:43.630Z,19.92
2018-06-16T01:26:24.192Z,19.82
2018-06-16T01:27:04.753Z,19.84
2018-06-16T01:27:45.307Z,19.86
2018-06-16T01:28:25.887Z,19.88
2018-06-16T01:29:06.451Z,19.86
2018-06-16T01:29:47.013Z,19.84
2018-06-16T01:30:27.582Z,19.76
2018-06-16T01:31:08.150Z,19.86
2018-06-16T01:31:48.712Z,19.82
2018-06-16T01:32:29.283Z,19.85
2018-06-16T01:33:09.822Z,19.79
2018-06-16T01:33:50.387Z,19.86
2018-06-16T01:34:30.953Z,19.81
2018-06-16T01:35:11.531Z,19.79
2018-06-16T01:35:52.102Z,19.85
2018-06-16T01:36:32.716Z,19.79
2018-06-16T01:37:13.289Z,19.71
2018-06-16T01:37:53.859Z,19.88
2018-06-16T01:38:34.491Z,19.73
2018-06-16T01:39:15.124Z,19.77
2018-06-16T01:39:55.696Z,19.79
2018-06-16T01:40:36.265Z,19.86
2018-06-16T01:41:16.831Z,19.73
2018-06-16T01:41:57.394Z,19.69
2018-06-16T01:42:37.976Z,19.73
2018-06-16T01:43:18.568Z,19.81
2018-06-16T01:43:59.133Z,19.74
2018-06-16T01:44:39.697Z,19.71
2018-06-16T01:45:20.256Z,19.81
2018-06-16T01:46:00.824Z,19.73
2018-06-16T01:46:41.410Z,19.82
2018-06-16T01:47:21.983Z,19.76
2018-06-16T01:48:02.552Z,19.76
2018-06-16T01:48:43.113Z,19.71
2018-06-16T01:49:23.683Z,19.73
2018-06-16T01:50:04.243Z,19.73
2018-06-16T01:50:44.823Z,19.69
2018-06-16T01:51:25.399Z,19.67
2018-06-16T01:52:05.954Z,19.71
2018-06-16T01:52:46.510Z,19.73
2018-06-16T01:53:27.066Z,19.66
2018-06-16T01:54:07.627Z,19.67
2018-06-16T01:54:48.195Z,19.73
2018-06-16T01:55:28.766Z,19.73
2018-06-16T01:56:09.329Z,19.7
2018-06-16T01:56:49.907Z,19.7
2018-06-16T01:57:30.476Z,19.69
2018-06-16T01:58:11.078Z,19.7
2018-06-16T01:58:51.677Z,19.73
2018-06-16T01:59:32.241Z,19.62
2018-06-16T02:00:12.814Z,19.63
2018-06-16T02:00:53.385Z,19.77
2018-06-16T02:01:33.957Z,19.63
2018-06-16T02:02:14.518Z,19.69
2018-06-16T02:02:55.079Z,19.66
2018-06-16T02:03:35.622Z,19.67
2018-06-16T02:04:16.183Z,19.73
2018-06-16T02:04:56.749Z,19.69
2018-06-16T02:05:37.316Z,19.62
2018-06-16T02:06:17.889Z,19.58
2018-06-16T02:06:58.453Z,19.67
2018-06-16T02:07:39.056Z,19.73
2018-06-16T02:08:19.645Z,19.59
2018-06-16T02:09:00.210Z,19.62
2018-06-16T02:09:40.756Z,19.64
2018-06-16T02:10:21.319Z,19.54
2018-06-16T02:11:01.883Z,19.55
2018-06-16T02:11:42.450Z,19.56
2018-06-16T02:12:23.020Z,19.62
2018-06-16T02:13:03.597Z,19.49
2018-06-16T02:13:44.167Z,19.54
2018-06-16T02:14:24.738Z,19.55
2018-06-16T02:15:05.303Z,19.63
2018-06-16T02:15:45.875Z,19.55
2018-06-16T02:16:26.434Z,19.55
2018-06-16T02:17:06.994Z,19.44
2018-06-16T02:17:47.552Z,19.55
2018-06-16T02:18:28.115Z,19.51
2018-06-16T02:19:08.680Z,19.45
2018-06-16T02:19:49.244Z,19.49
2018-06-16T02:20:29.806Z,19.52
2018-06-16T02:21:10.376Z,19.52
2018-06-16T02:21:50.939Z,19.56
2018-06-16T02:22:31.515Z,19.54
2018-06-16T02:23:12.083Z,19.45
2018-06-16T02:23:52.663Z,19.63
2018-06-16T02:24:33.231Z,19.59
2018-06-16T02:25:13.790Z,19.59
2018-06-16T02:25:54.364Z,19.55
2018-06-16T02:26:34.930Z,19.63
2018-06-16T02:27:15.489Z,19.45
2018-06-16T02:27:56.068Z,19.49
2018-06-16T02:28:36.628Z,19.52
2018-06-16T02:29:17.196Z,19.59
2018-06-16T02:29:57.755Z,19.48
2018-06-16T02:30:38.334Z,19.55
2018-06-16T02:31:18.890Z,19.59
2018-06-16T02:31:59.448Z,19.52
2018-06-16T02:32:40.008Z,19.56
2018-06-16T02:33:20.577Z,19.64
2018-06-16T02:34:01.156Z,19.49
2018-06-16T02:34:41.725Z,19.45
2018-06-16T02:35:22.297Z,19.64
2018-06-16T02:36:02.870Z,19.52
2018-06-16T02:36:43.452Z,19.52
2018-06-16T02:37:24.006Z,19.59
2018-06-16T02:38:04.567Z,19.52
2018-06-16T02:38:45.138Z,19.49
2018-06-16T02:39:25.712Z,19.49
2018-06-16T02:40:06.285Z,19.44
2018-06-16T02:40:46.854Z,19.52
2018-06-16T02:41:27.423Z,19.54
2018-06-16T02:42:07.997Z,19.51
2018-06-16T02:42:48.558Z,19.55
2018-06-16T02:43:29.123Z,19.49
2018-06-16T02:44:09.689Z,19.55
2018-06-16T02:44:50.262Z,19.49
2018-06-16T02:45:30.841Z,19.52
2018-06-16T02:46:11.406Z,19.52
2018-06-16T02:46:51.966Z,19.56
2018-06-16T02:47:32.528Z,19.45
2018-06-16T02:48:13.093Z,19.49
2018-06-16T02:48:53.656Z,19.52
2018-06-16T02:49:34.209Z,19.51
2018-06-16T02:50:14.819Z,19.51
2018-06-16T02:50:55.339Z,19.47
2018-06-16T02:51:35.972Z,19.56
2018-06-16T02:52:16.549Z,19.54
2018-06-16T02:52:57.095Z,19.51
2018-06-16T02:53:37.654Z,19.44
2018-06-16T02:54:18.250Z,19.49
2018-06-16T02:54:58.784Z,19.51
2018-06-16T02:55:39.343Z,19.45
2018-06-16T02:56:19.924Z,19.49
2018-06-16T02:57:00.495Z,19.45
2018-06-16T02:57:41.067Z,19.47
2018-06-16T02:58:21.639Z,19.44
2018-06-16T02:59:02.219Z,19.49
2018-06-16T02:59:42.786Z,19.48
2018-06-16T03:00:23.351Z,19.45
2018-06-16T03:01:03.914Z,19.51
2018-06-16T03:01:44.490Z,19.4
2018-06-16T03:02:25.045Z,19.52
2018-06-16T03:03:05.608Z,19.54
2018-06-16T03:03:46.170Z,19.51
2018-06-16T03:04:26.726Z,19.54
2018-06-16T03:05:07.296Z,19.56
2018-06-16T03:05:47.883Z,19.52
2018-06-16T03:06:28.422Z,19.55
2018-06-16T03:07:08.984Z,19.44
2018-06-16T03:07:49.552Z,19.52
2018-06-16T03:08:30.120Z,19.47
2018-06-16T03:09:10.684Z,19.48
2018-06-16T03:09:51.252Z,19.48
2018-06-16T03:10:31.834Z,19.54
2018-06-16T03:11:12.399Z,19.51
2018-06-16T03:11:52.977Z,19.51
2018-06-16T03:12:33.524Z,19.49
2018-06-16T03:13:14.098Z,19.55
2018-06-16T03:13:54.668Z,19.52
2018-06-16T03:14:35.234Z,19.41
2018-06-16T03:15:15.823Z,19.52
2018-06-16T03:15:56.363Z,19.51
2018-06-16T03:16:36.957Z,19.52
2018-06-16T03:17:17.526Z,19.41
2018-06-16T03:17:58.082Z,19.48
2018-06-16T03:18:38.646Z,19.44
2018-06-16T03:19:19.203Z,19.49
2018-06-16T03:19:59.751Z,19.44
2018-06-16T03:20:40.325Z,19.45
2018-06-16T03:21:20.869Z,19.45
2018-06-16T03:22:01.423Z,19.49
2018-06-16T03:22:41.993Z,19.41
2018-06-16T03:23:22.614Z,19.48
2018-06-16T03:24:03.153Z,19.54
2018-06-16T03:24:43.715Z,19.47
2018-06-16T03:25:24.270Z,19.49
2018-06-16T03:26:04.812Z,19.52
2018-06-16T03:26:45.387Z,19.45
2018-06-16T03:27:25.983Z,19.48
2018-06-16T03:28:06.560Z,19.51
2018-06-16T03:28:47.109Z,19.52
2018-06-16T03:29:27.680Z,19.48
2018-06-16T03:30:08.232Z,19.41
2018-06-16T03:30:48.781Z,19.52
2018-06-16T03:31:29.344Z,19.51
2018-06-16T03:32:09.911Z,19.47
2018-06-16T03:32:50.481Z,19.52
2018-06-16T03:33:31.043Z,19.41
2018-06-16T03:34:11.612Z,19.52
2018-06-16T03:34:52.183Z,19.49
2018-06-16T03:35:32.742Z,19.48
2018-06-16T03:36:13.315Z,19.48
2018-06-16T03:36:53.884Z,19.49
2018-06-16T03:37:34.483Z,19.51
2018-06-16T03:38:15.052Z,19.41
2018-06-16T03:38:55.595Z,19.48
2018-06-16T03:39:36.142Z,19.48
2018-06-16T03:40:16.701Z,19.48
2018-06-16T03:40:57.271Z,19.51
2018-06-16T03:41:37.850Z,19.58
2018-06-16T03:42:18.416Z,19.45
2018-06-16T03:42:58.981Z,19.47
2018-06-16T03:43:44.106Z,19.55
2018-06-16T03:47:39.615Z,19.47
2018-06-16T03:48:20.177Z,19.54
2018-06-16T03:49:00.746Z,19.49
2018-06-16T03:49:41.305Z,19.49
2018-06-16T03:50:21.866Z,19.48
2018-06-16T03:51:02.430Z,19.48
2018-06-16T03:51:42.978Z,19.51
2018-06-16T03:52:23.533Z,19.49
2018-06-16T03:53:04.150Z,19.48
2018-06-16T03:53:44.694Z,19.51
2018-06-16T03:54:25.270Z,19.47
2018-06-16T03:55:05.822Z,19.45
2018-06-16T03:55:46.382Z,19.51
2018-06-16T03:56:26.942Z,19.51
2018-06-16T03:57:07.490Z,19.54
2018-06-16T03:57:48.054Z,19.47
2018-06-16T03:58:28.600Z,19.51
2018-06-16T03:59:09.302Z,19.48
2018-06-16T03:59:51.718Z,19.59
2018-06-16T04:00:32.390Z,19.41
2018-06-16T04:01:12.941Z,19.55
2018-06-16T04:01:53.498Z,19.48
2018-06-16T04:02:34.169Z,19.48
2018-06-16T04:03:14.700Z,19.52
2018-06-16T04:03:55.246Z,19.47
2018-06-16T04:04:35.799Z,19.52
2018-06-16T04:05:16.353Z,19.47
2018-06-16T04:05:56.911Z,19.49
2018-06-16T04:06:37.454Z,19.58
2018-06-16T04:07:18.011Z,19.51
2018-06-16T04:07:58.569Z,19.56
2018-06-16T04:08:39.137Z,19.58
2018-06-16T04:09:19.705Z,19.54
2018-06-16T04:10:00.267Z,19.59
2018-06-16T04:10:40.839Z,19.62
2018-06-16T04:11:21.408Z,19.62
2018-06-16T04:12:01.982Z,19.54
2018-06-16T04:12:42.558Z,19.62
2018-06-16T04:13:23.141Z,19.47
2018-06-16T04:14:03.701Z,19.56
2018-06-16T04:14:44.265Z,19.59
2018-06-16T04:15:24.825Z,19.59
2018-06-16T04:16:05.390Z,19.64
2018-06-16T04:16:46.031Z,19.52
2018-06-16T04:17:26.518Z,19.49
2018-06-16T04:18:07.091Z,19.47
2018-06-16T04:18:47.660Z,19.58
2018-06-16T04:19:28.217Z,19.55
2018-06-16T04:20:08.783Z,19.49
2018-06-16T04:20:49.350Z,19.64
2018-06-16T04:21:29.923Z,19.55
2018-06-16T04:22:10.486Z,19.63
2018-06-16T04:22:51.046Z,19.51
2018-06-16T04:23:31.613Z,19.51
2018-06-16T04:24:12.159Z,19.56
2018-06-16T04:24:52.726Z,19.55
2018-06-16T04:25:33.285Z,19.59
2018-06-16T04:26:13.836Z,19.51
2018-06-16T04:26:54.404Z,19.64
2018-06-16T04:27:34.984Z,19.55
2018-06-16T04:28:15.540Z,19.59
2018-06-16T04:28:56.123Z,19.62
2018-06-16T04:31:08.917Z,19.63
2018-06-16T04:31:49.503Z,19.63
2018-06-16T04:32:30.038Z,19.62
2018-06-16T04:33:10.588Z,19.66
2018-06-16T04:33:51.123Z,19.67
2018-06-16T04:34:31.671Z,19.64
2018-06-16T04:35:12.230Z,19.71
2018-06-16T04:35:52.795Z,19.69
2018-06-16T04:36:33.322Z,19.69
2018-06-16T04:37:13.890Z,19.7
2018-06-16T04:37:54.419Z,19.64
2018-06-16T04:38:34.975Z,19.74
2018-06-16T04:39:15.525Z,19.71
2018-06-16T04:39:56.081Z,19.69
2018-06-16T04:40:36.635Z,19.74
2018-06-16T04:41:17.190Z,19.64
2018-06-16T04:41:57.744Z,19.77
2018-06-16T04:42:38.311Z,19.74
2018-06-16T04:43:18.871Z,19.73
2018-06-16T04:43:59.438Z,19.79
2018-06-16T04:44:39.987Z,19.71
2018-06-16T04:45:20.573Z,19.73
2018-06-16T04:46:01.148Z,19.81
2018-06-16T04:46:41.728Z,19.76
2018-06-16T04:47:22.292Z,19.73
2018-06-16T04:48:02.859Z,19.71
2018-06-16T04:48:43.424Z,19.81
2018-06-16T04:49:23.996Z,19.81
2018-06-16T04:50:04.580Z,19.81
2018-06-16T04:50:45.134Z,19.79
2018-06-16T04:51:25.695Z,19.86
2018-06-16T04:52:06.273Z,19.73
2018-06-16T04:52:46.845Z,19.84
2018-06-16T04:53:27.400Z,19.86
2018-06-16T04:54:07.970Z,19.94
2018-06-16T04:54:48.559Z,19.92
2018-06-16T04:55:29.107Z,19.92
2018-06-16T04:56:09.681Z,19.86
2018-06-16T04:56:50.233Z,19.94
2018-06-16T04:57:30.775Z,19.88
2018-06-16T04:58:11.320Z,19.88
2018-06-16T04:58:51.889Z,19.92
2018-06-16T04:59:32.461Z,19.94
2018-06-16T05:00:13.011Z,19.95
2018-06-16T05:00:53.582Z,19.86
2018-06-16T05:01:34.123Z,19.92
2018-06-16T05:02:14.675Z,19.89
2018-06-16T05:02:55.226Z,19.92
2018-06-16T05:03:35.789Z,19.86
2018-06-16T05:04:16.357Z,19.95
2018-06-16T05:04:56.913Z,19.94
2018-06-16T05:05:37.475Z,19.92
2018-06-16T05:06:18.035Z,19.95
2018-06-16T05:06:58.592Z,19.95
2018-06-16T05:07:39.151Z,20.02
2018-06-16T05:08:19.722Z,20
2018-06-16T05:09:00.365Z,20
2018-06-16T05:09:40.941Z,20
2018-06-16T05:10:21.496Z,19.95
2018-06-16T05:11:02.085Z,19.91
2018-06-16T05:11:42.657Z,19.91
2018-06-16T05:12:23.215Z,19.92
2018-06-16T05:13:03.784Z,20
2018-06-16T05:13:44.375Z,20.07
2018-06-16T05:14:24.934Z,20.11
2018-06-16T05:15:05.499Z,20.02
2018-06-16T05:15:46.050Z,20.14
2018-06-16T05:16:26.602Z,20.06
2018-06-16T05:17:07.152Z,20.16
2018-06-16T05:17:47.713Z,20.07
2018-06-16T05:18:28.815Z,20.21
2018-06-16T05:20:16.305Z,20.24
2018-06-16T05:20:56.871Z,20.13
2018-06-16T05:21:37.427Z,20.16
2018-06-16T05:22:18.006Z,20.19
2018-06-16T05:22:58.580Z,20.13
2018-06-16T05:23:39.137Z,20.11
2018-06-16T05:24:19.722Z,20.1
2018-06-16T05:25:00.269Z,20.25
2018-06-16T05:25:40.872Z,20.19
2018-06-16T05:26:21.396Z,20.29
2018-06-16T05:27:01.943Z,20.25
2018-06-16T05:27:42.499Z,20.31
2018-06-16T05:28:23.069Z,20.32
2018-06-16T05:29:03.623Z,20.36
2018-06-16T05:29:55.080Z,20.31
2018-06-16T05:31:32.413Z,20.32
2018-06-16T05:32:12.992Z,20.32
2018-06-16T05:32:53.546Z,20.36
2018-06-16T05:33:34.125Z,20.31
2018-06-16T05:34:14.685Z,20.36
2018-06-16T05:34:55.242Z,20.39
2018-06-16T05:35:35.804Z,20.34
2018-06-16T05:36:16.396Z,20.37
2018-06-16T05:36:56.978Z,20.48
2018-06-16T05:37:37.497Z,20.4
2018-06-16T05:38:18.074Z,20.43
2018-06-16T05:38:58.646Z,20.43
2018-06-16T05:39:39.201Z,20.48
2018-06-16T05:40:19.746Z,20.43
2018-06-16T05:41:00.296Z,20.48
2018-06-16T05:41:40.850Z,20.47
2018-06-16T05:42:21.396Z,20.51
2018-06-16T05:43:01.971Z,20.43
2018-06-16T05:43:42.547Z,20.47
2018-06-16T05:44:23.131Z,20.41
2018-06-16T05:45:03.695Z,20.58
2018-06-16T05:45:44.254Z,20.56
2018-06-16T05:46:24.813Z,20.58
2018-06-16T05:47:05.404Z,20.55
2018-06-16T05:47:45.968Z,20.59
2018-06-16T05:48:26.541Z,20.62
2018-06-16T05:49:07.062Z,20.58
2018-06-16T05:49:47.639Z,20.69
2018-06-16T05:50:28.168Z,20.66
2018-06-16T05:51:08.740Z,20.67
2018-06-16T05:51:49.310Z,20.69
2018-06-16T05:52:29.865Z,20.67
2018-06-16T05:53:10.451Z,20.69
2018-06-16T05:53:51.038Z,20.75
2018-06-16T05:54:31.599Z,20.66
2018-06-16T05:55:12.157Z,20.74
2018-06-16T05:55:52.717Z,20.78
2018-06-16T05:56:33.260Z,20.72
2018-06-16T05:57:13.806Z,20.75
2018-06-16T05:57:54.393Z,20.74
2018-06-16T05:58:34.938Z,20.75
2018-06-16T05:59:15.510Z,20.77
2018-06-16T05:59:56.063Z,20.78
2018-06-16T06:00:36.849Z,20.72
2018-06-16T06:01:17.347Z,20.81
2018-06-16T06:01:57.912Z,20.81
2018-06-16T06:02:38.458Z,20.82
2018-06-16T06:03:19.028Z,20.9
2018-06-16T06:03:59.808Z,20.84
2018-06-16T06:04:40.712Z,20.92
2018-06-16T06:05:21.737Z,20.88
2018-06-16T06:06:02.301Z,20.84
2018-06-16T06:06:42.862Z,20.93
2018-06-16T06:07:23.434Z,20.97
2018-06-16T06:08:04.008Z,20.9
2018-06-16T06:08:44.609Z,20.97
2018-06-16T06:09:25.155Z,21.03
2018-06-16T06:10:05.826Z,20.93
2018-06-16T06:10:49.015Z,21.05
2018-06-16T06:11:34.330Z,21
2018-06-16T06:12:14.905Z,20.99
2018-06-16T06:12:55.473Z,20.99
2018-06-16T06:13:36.261Z,21.06
2018-06-16T06:14:16.864Z,21.14
2018-06-16T06:14:57.584Z,21.12
2018-06-16T06:15:38.889Z,21.09
2018-06-16T06:16:19.488Z,21.05
2018-06-16T06:17:00.048Z,21.05
2018-06-16T06:17:40.751Z,21.11
2018-06-16T06:18:21.539Z,21.11
2018-06-16T06:19:02.167Z,21.02
2018-06-16T06:19:42.735Z,21.17
2018-06-16T06:20:23.296Z,21.02
2018-06-16T06:21:03.894Z,21.06
2018-06-16T06:21:44.944Z,21.06
2018-06-16T06:22:25.896Z,21.03
2018-06-16T06:23:06.895Z,21.02
2018-06-16T06:23:48.347Z,21.02
2018-06-16T06:24:29.254Z,21
2018-06-16T06:25:09.955Z,21.02
2018-06-16T06:25:50.545Z,21.03
2018-06-16T06:26:31.116Z,21.11
2018-06-16T06:27:11.688Z,21.09
2018-06-16T06:27:52.256Z,21.03
2018-06-16T06:28:32.905Z,21.06
2018-06-16T06:29:13.475Z,20.97
2018-06-16T06:29:54.202Z,21.06
2018-06-16T06:30:35.038Z,21.14
2018-06-16T06:31:15.876Z,21.11
2018-06-16T06:31:56.756Z,21.12
2018-06-16T06:32:37.304Z,21.11
2018-06-16T06:33:17.877Z,21.15
2018-06-16T06:33:58.606Z,21.12
2018-06-16T06:34:39.405Z,21.09
2018-06-16T06:35:20.487Z,21.15
2018-06-16T06:36:01.507Z,21.09
2018-06-16T06:36:42.848Z,21.18
2018-06-16T06:37:23.407Z,21.12
2018-06-16T06:38:04.232Z,21.07
2018-06-16T06:38:44.799Z,21.05
2018-06-16T06:39:25.698Z,21.15
2018-06-16T06:40:06.386Z,21.2
2018-06-16T06:40:46.971Z,21.2
2018-06-16T06:41:27.539Z,21.2
2018-06-16T06:42:08.102Z,21.22
2018-06-16T06:42:49.032Z,21.14
2018-06-16T06:43:30.213Z,21.2
2018-06-16T06:44:10.920Z,21.21
2018-06-16T06:44:51.831Z,21.24
2018-06-16T06:45:32.839Z,21.24
2018-06-16T06:46:13.906Z,21.25
2018-06-16T06:46:55.521Z,21.25
2018-06-16T06:47:36.348Z,21.21
2018-06-16T06:48:17.224Z,21.2
2018-06-16T06:48:58.800Z,21.32
2018-06-16T06:49:39.698Z,21.27
2018-06-16T06:50:20.707Z,21.27
2018-06-16T06:51:02.299Z,21.35
2018-06-16T06:51:43.353Z,21.35
2018-06-16T06:52:24.411Z,21.3
2018-06-16T06:53:05.474Z,21.37
2018-06-16T06:53:46.529Z,21.33
2018-06-16T06:54:27.628Z,21.36
2018-06-16T06:55:08.575Z,21.37
2018-06-16T06:55:49.233Z,21.3
2018-06-16T06:56:29.795Z,21.39
2018-06-16T06:57:10.367Z,21.48
2018-06-16T06:57:50.923Z,21.48
2018-06-16T06:58:31.525Z,21.46
2018-06-16T06:59:12.091Z,21.43
2018-06-16T06:59:52.634Z,21.48
2018-06-16T07:00:33.227Z,21.57
2018-06-16T07:01:13.797Z,21.5
2018-06-16T07:01:54.462Z,21.55
2018-06-16T07:02:35.330Z,21.6
2018-06-16T07:03:16.086Z,21.6
2018-06-16T07:03:56.825Z,21.5
2018-06-16T07:04:37.345Z,21.6
2018-06-16T07:05:17.981Z,21.55
2018-06-16T07:05:58.598Z,21.6
2018-06-16T07:06:39.192Z,21.62
2018-06-16T07:07:19.779Z,21.64
2018-06-16T07:08:00.380Z,21.7
2018-06-16T07:08:41.196Z,21.64
2018-06-16T07:09:22.146Z,21.73
2018-06-16T07:10:02.835Z,21.72
2018-06-16T07:10:43.459Z,21.73
2018-06-16T07:11:24.030Z,21.75
2018-06-16T07:12:05.121Z,21.58
2018-06-16T07:12:45.810Z,21.66
2018-06-16T07:13:26.554Z,21.69
2018-06-16T07:14:07.110Z,21.73
2018-06-16T07:14:47.681Z,21.75
2018-06-16T07:15:28.248Z,21.69
2018-06-16T07:16:08.811Z,21.75
2018-06-16T07:16:49.380Z,21.69
2018-06-16T07:17:29.968Z,21.72
2018-06-16T07:18:10.535Z,21.72
2018-06-16T07:18:51.102Z,21.61
2018-06-16T07:19:31.744Z,21.69
2018-06-16T07:20:12.640Z,21.66
2018-06-16T07:20:53.703Z,21.69
2018-06-16T07:21:34.701Z,21.82
2018-06-16T07:22:15.797Z,21.8
2018-06-16T07:22:57.533Z,21.73
2018-06-16T07:23:38.820Z,21.82
2018-06-16T07:24:19.743Z,21.83
2018-06-16T07:25:00.715Z,21.88
2018-06-16T07:25:41.704Z,21.88
2018-06-16T07:26:22.683Z,21.8
2018-06-16T07:27:03.623Z,21.89
2018-06-16T07:27:44.929Z,21.91
2018-06-16T07:28:25.901Z,21.92
2018-06-16T07:29:06.839Z,21.95
2018-06-16T07:29:47.799Z,21.91
2018-06-16T07:30:29.507Z,21.95
2018-06-16T07:31:10.494Z,21.93
2018-06-16T07:31:51.503Z,22
2018-06-16T07:32:32.457Z,22.02
2018-06-16T07:33:13.270Z,22.06
2018-06-16T07:33:55.010Z,22.06
2018-06-16T07:34:35.776Z,22.08
2018-06-16T07:35:16.692Z,22.15
2018-06-16T07:35:57.662Z,22.13
2018-06-16T07:36:38.691Z,22.14
2018-06-16T07:37:19.597Z,22.22
2018-06-16T07:38:00.640Z,22.23
2018-06-16T07:38:41.823Z,22.29
2018-06-16T07:39:22.888Z,22.25
2018-06-16T07:40:03.957Z,22.22
2018-06-16T07:40:45.099Z,22.32
2018-06-16T07:41:26.149Z,22.36
2018-06-16T07:42:07.294Z,22.38
2018-06-16T07:42:48.274Z,22.38
2018-06-16T07:43:29.302Z,22.45
2018-06-16T07:44:10.283Z,22.45
2018-06-16T07:44:51.241Z,22.44
2018-06-16T07:45:32.333Z,22.44
2018-06-16T07:46:13.340Z,22.5
2018-06-16T07:46:54.469Z,22.57
2018-06-16T07:47:35.499Z,22.55
2018-06-16T07:48:16.533Z,22.53
2018-06-16T07:48:57.615Z,22.55
2018-06-16T07:49:38.606Z,22.57
2018-06-16T07:50:19.669Z,22.62
2018-06-16T07:51:00.731Z,22.59
2018-06-16T07:51:41.744Z,22.57
2018-06-16T07:52:22.749Z,22.68
2018-06-16T07:53:03.882Z,22.59
2018-06-16T07:53:44.980Z,22.78
2018-06-16T07:54:26.008Z,22.8
2018-06-16T07:55:07.066Z,22.87
2018-06-16T07:55:48.176Z,23.03
2018-06-16T07:56:29.281Z,23.05
2018-06-16T07:57:10.355Z,23.02
2018-06-16T07:57:51.411Z,23.03
2018-06-16T07:58:32.441Z,23.1
2018-06-16T07:59:13.552Z,23.13
2018-06-16T07:59:54.644Z,23.17
2018-06-16T08:00:35.615Z,23.12
2018-06-16T08:01:16.671Z,23.12
2018-06-16T08:01:57.765Z,23.13
2018-06-16T08:02:38.681Z,23.2
2018-06-16T08:03:19.744Z,23.12
2018-06-16T08:04:00.708Z,23.23
2018-06-16T08:05:48.234Z,23.37
2018-06-16T08:06:28.771Z,23.27
2018-06-16T08:08:26.426Z,23.34
2018-06-16T08:09:06.993Z,23.28
2018-06-16T08:09:47.564Z,23.41
2018-06-16T08:10:28.127Z,23.4
2018-06-16T08:11:08.672Z,23.51
2018-06-16T08:11:49.243Z,23.47
2018-06-16T08:12:29.807Z,23.48
2018-06-16T08:13:10.351Z,23.56
2018-06-16T08:13:50.938Z,23.55
2018-06-16T08:14:31.509Z,23.59
2018-06-16T08:15:12.081Z,23.71
2018-06-16T08:15:52.719Z,23.71
2018-06-16T08:16:33.278Z,23.68
2018-06-16T08:17:13.860Z,23.78
2018-06-16T08:17:54.412Z,23.88
2018-06-16T08:18:34.962Z,23.95
2018-06-16T08:19:15.522Z,23.99
2018-06-16T08:19:56.096Z,24.08
2018-06-16T08:20:36.682Z,24.1
2018-06-16T08:21:17.263Z,24.17
2018-06-16T08:21:57.824Z,24.14
2018-06-16T08:22:38.470Z,24.13
2018-06-16T08:23:19.009Z,24.14
2018-06-16T08:23:59.547Z,24.03
2018-06-16T08:24:40.141Z,24.02
2018-06-16T08:25:20.663Z,24.05
2018-06-16T08:26:01.227Z,24.18
2018-06-16T08:26:41.767Z,24.14
2018-06-16T08:27:22.316Z,24.13
2018-06-16T08:28:02.886Z,24.03
2018-06-16T08:28:43.504Z,24.13
2018-06-16T08:29:24.210Z,24.06
2018-06-16T08:30:05.406Z,24.01
2018-06-16T08:30:46.218Z,24.14
2018-06-16T08:31:26.938Z,24.16
2018-06-16T08:32:07.497Z,24.1
2018-06-16T08:32:48.217Z,24.17
2018-06-16T08:33:29.211Z,24.16
2018-06-16T08:34:10.007Z,24.17
2018-06-16T08:34:50.671Z,24.08
2018-06-16T08:35:31.300Z,24.14
2018-06-16T08:36:11.973Z,24.18
2018-06-16T08:36:52.620Z,24.18
2018-06-16T08:37:33.541Z,24.2
2018-06-16T08:38:14.260Z,24.33
2018-06-16T08:38:54.819Z,24.23
2018-06-16T08:39:35.438Z,24.24
2018-06-16T08:40:16.040Z,24.32
2018-06-16T08:40:56.601Z,24.28
2018-06-16T08:41:37.193Z,24.36
2018-06-16T08:42:17.734Z,24.38
2018-06-16T08:42:58.300Z,24.26
2018-06-16T08:43:38.862Z,24.33
2018-06-16T08:44:19.450Z,24.3
2018-06-16T08:45:00.063Z,24.28
2018-06-16T08:45:40.607Z,24.38
2018-06-16T08:46:21.183Z,24.43
2018-06-16T08:47:01.769Z,24.47
2018-06-16T08:47:42.339Z,24.42
2018-06-16T08:48:22.907Z,24.47
2018-06-16T08:49:03.481Z,24.47
2018-06-16T08:49:44.113Z,24.5
2018-06-16T08:50:24.704Z,24.42
2018-06-16T08:51:05.304Z,24.45
2018-06-16T08:51:45.858Z,24.32
2018-06-16T08:52:26.438Z,24.35
2018-06-16T08:53:07.111Z,24.33
2018-06-16T08:53:47.673Z,24.33
2018-06-16T08:54:28.242Z,24.39
2018-06-16T08:55:08.793Z,24.42